createdAt,value
2023-02-02T00:03:26.726Z,3.97
2023-02-02T00:18:26.579Z,4.26
2023-02-02T00:33:26.397Z,4.34
2023-02-02T00:48:26.277Z,4.34
2023-02-02T01:03:26.078Z,4.39
2023-02-02T01:18:25.917Z,4.32
2023-02-02T01:33:25.748Z,4.15
2023-02-02T01:48:25.662Z,4.14
2023-02-02T02:03:25.571Z,4.14
2023-02-02T02:18:25.360Z,4.26
2023-02-02T02:33:25.102Z,4.39
2023-02-02T02:48:24.938Z,4.59
2023-02-02T03:03:24.785Z,4.69
2023-02-02T03:18:24.617Z,4.72
2023-02-02T03:33:24.467Z,4.88
2023-02-02T03:48:24.306Z,4.75
2023-02-02T04:03:24.152Z,4.59
2023-02-02T04:18:24.017Z,4.65
2023-02-02T04:33:24.476Z,4.64
2023-02-02T04:48:23.666Z,4.65
2023-02-02T05:03:23.528Z,4.59
2023-02-02T05:18:23.359Z,4.51
2023-02-02T05:33:23.230Z,4.44
2023-02-02T05:48:23.123Z,4.28
2023-02-02T06:03:22.978Z,4.32
2023-02-02T06:18:22.744Z,4.34
2023-02-02T06:33:22.581Z,4.42
2023-02-02T06:48:22.493Z,4.47
2023-02-02T07:03:22.275Z,4.51
2023-02-02T07:18:22.107Z,4.47
2023-02-02T07:33:21.968Z,4.64
2023-02-02T07:48:21.854Z,4.59
2023-02-02T08:03:21.867Z,4.43
2023-02-02T08:18:21.467Z,4.55
2023-02-02T08:33:21.328Z,4.86
2023-02-02T08:48:21.178Z,4.96
2023-02-02T09:03:20.997Z,5.14
2023-02-02T09:18:20.835Z,5.46
2023-02-02T09:33:20.742Z,5.25
2023-02-02T09:48:20.547Z,5.50
2023-02-02T10:03:20.369Z,5.75
2023-02-02T10:18:20.211Z,5.63
2023-02-02T10:33:20.078Z,5.96
2023-02-02T10:48:19.905Z,6.18
2023-02-02T11:03:19.751Z,6.21
2023-02-02T11:18:19.640Z,5.98
2023-02-02T11:33:19.433Z,6.14
2023-02-02T11:48:19.708Z,6.06
2023-02-02T12:03:19.132Z,6.14
2023-02-02T12:18:25.022Z,6.09
2023-02-02T12:33:18.811Z,5.88
2023-02-02T12:48:18.762Z,5.55
2023-02-02T13:03:18.636Z,5.59
2023-02-02T13:18:18.408Z,6.13
2023-02-02T13:33:18.389Z,6.41
2023-02-02T13:48:18.297Z,5.82
2023-02-02T14:03:17.873Z,5.27
2023-02-02T14:18:17.703Z,4.91
2023-02-02T14:33:17.581Z,4.59
2023-02-02T14:48:17.393Z,4.50
2023-02-02T15:03:17.252Z,4.39
2023-02-02T15:18:17.085Z,4.04
2023-02-02T15:33:16.919Z,3.80
2023-02-02T15:48:16.771Z,3.53
2023-02-02T16:03:16.594Z,3.27
2023-02-02T16:18:16.517Z,2.70
2023-02-02T16:33:16.264Z,2.26
2023-02-02T16:48:18.150Z,1.61
2023-02-02T17:03:15.978Z,1.12
2023-02-02T17:18:15.809Z,1.08
2023-02-02T17:33:15.680Z,1.29
2023-02-02T17:48:15.510Z,0.58
2023-02-02T18:03:15.373Z,0.58
2023-02-02T18:18:15.229Z,-0.04
2023-02-02T18:33:15.048Z,-0.23
2023-02-02T18:48:15.620Z,-0.45
2023-02-02T19:03:14.743Z,-0.47
2023-02-02T19:18:14.714Z,-1.07
2023-02-02T19:33:14.518Z,-1.13
2023-02-02T19:48:14.325Z,-1.36
2023-02-02T20:03:14.348Z,-1.36
2023-02-02T20:18:14.123Z,-1.30
2023-02-02T20:33:13.878Z,-1.10
2023-02-02T20:48:13.735Z,-1.27
2023-02-02T21:03:13.590Z,-1.23
2023-02-02T21:18:13.452Z,-1.30
2023-02-02T21:33:13.321Z,-1.33
2023-02-02T21:48:13.264Z,-1.49
2023-02-02T22:03:13.027Z,-1.54
2023-02-02T22:18:12.888Z,-1.63
2023-02-02T22:33:12.727Z,-1.48
2023-02-02T22:48:12.580Z,-1.39
2023-02-02T23:03:12.572Z,-1.18
2023-02-02T23:18:12.293Z,-1.00
2023-02-02T23:33:12.171Z,-0.86
2023-02-02T23:48:12.012Z,-0.69
